BSF Airport (Bradshaw Army Airfield) Information

FAA: BSF - ICAO: PHSF

BSF Airport Location

State Hawaii
County Hawaii
City Camp Pohakuloa
BSF Airport is 1 mile west of Camp Pohakuloa, HI.
Latitude 19-45-36.0482N
Longitude 155-33-13.5583W
Elevation 6,190ft

PHSF Airport METARs

METAR PHSF 200358Z AUTO 00000KT 9SM SCT010 14/12 A3032 RMK AO2 SLP171 T01370119 $
Altimeter 30.32"
Temperature 13.7°C (56.7°F)
Wind 0° at 0KT
Clouds scattered at 1,000ft
Visibility 9.0mi
Time observed: 2021-10-20T03:58:00Z

BSF Airport Details

Status Operational
Activation April 1960
Ownership Military - Army
Usage Private
Chart HAWAIIAN ISLANDS
ATC on-site Yes
Beacon schedule N/A
Beacon color N/A

BSF Airport Contacts

Owner USAR HAW
Owner address C/O POSTMASTER, SAN FRANCISCO, CA 96557
Owner phone N/A
Manager ROY SAKATA
Manager address 300 RODGERS BLVD. #12, HONOLULU, HI 96819-1897
Manager phone 808-836-6533

BSF Airport (Bradshaw Army Airfield) Radio Frequencies

BSF (Airport) Radio Frequencies

UNICOM N/A
Common traffic advisory frequency (CTAF) 126.3